Time;durP1;ratioP1;P1;durP2;ratioP2;P2;SDS_P1;SDS_P2;PMS_P1;PMS_P2;Temp;Humidity;BMP_temperature;BMP_pressure;BME280_temperature;BME280_humidity;BME280_pressure;Samples;Min_cycle;Max_cycle;Signal;HPM_P1;HPM_P2
2023/12/23 00:01:43;;;;;;;11.17;2.60;;;;;;;;;;4935570;28;20313;-87
2023/12/23 00:04:14;;;;;;;11.37;3.40;;;;;;;;;;4902349;28;20947;-87
2023/12/23 00:06:39;;;;;;;12.10;2.80;;;;;;;;;;4927727;28;20226;-86
2023/12/23 00:09:07;;;;;;;15.83;3.30;;;;;;;;;;4927323;28;20253;-85
2023/12/23 00:11:32;;;;;;;11.13;3.43;;;;;;;;;;4919392;28;20243;-87
2023/12/23 00:14:02;;;;;;;14.73;3.07;;;;;;;;;;4937690;28;20221;-84
2023/12/23 00:16:28;;;;;;;13.93;3.00;;;;;;;;;;4926340;28;20227;-82
2023/12/23 00:18:53;;;;;;;11.80;2.47;;;;;;;;;;4967574;28;20226;-83
2023/12/23 00:21:19;;;;;;;14.50;2.27;;;;;;;;;;4902208;28;20452;-85
2023/12/23 00:23:44;;;;;;;12.17;2.73;;;;;;;;;;4927486;29;20219;-87
2023/12/23 00:26:12;;;;;;;12.80;2.73;;;;;;;;;;4914850;28;20214;-86
2023/12/23 00:28:43;;;;;;;13.20;2.83;;;;;;;;;;4921732;29;20263;-85
2023/12/23 00:31:11;;;;;;;13.23;2.73;;;;;;;;;;4929593;28;20225;-85
2023/12/23 00:33:42;;;;;;;14.07;2.60;;;;;;;;;;4903426;28;20243;-86
2023/12/23 00:36:10;;;;;;;10.93;2.83;;;;;;;;;;4910872;28;20218;-85
2023/12/23 00:38:41;;;;;;;8.77;2.57;;;;;;;;;;4925182;29;20211;-85
2023/12/23 00:41:06;;;;;;;11.83;2.53;;;;;;;;;;4920458;28;20227;-85
2023/12/23 00:43:36;;;;;;;10.30;2.80;;;;;;;;;;4928735;28;20718;-86
2023/12/23 00:46:02;;;;;;;7.03;1.83;;;;;;;;;;4926430;28;20234;-84
2023/12/23 00:48:27;;;;;;;9.60;2.87;;;;;;;;;;4934602;28;20242;-85
2023/12/23 00:50:53;;;;;;;16.43;2.80;;;;;;;;;;4930127;28;20227;-84
2023/12/23 00:53:25;;;;;;;7.57;2.30;;;;;;;;;;4931500;28;20906;-87
2023/12/23 00:55:51;;;;;;;7.00;2.17;;;;;;;;;;4927721;28;20614;-87
2023/12/23 00:58:19;;;;;;;6.37;2.30;;;;;;;;;;4928613;28;20262;-86
2023/12/23 01:00:44;;;;;;;9.13;2.10;;;;;;;;;;4913644;28;20231;-86
2023/12/23 01:03:14;;;;;;;11.40;2.60;;;;;;;;;;4946317;28;20237;-87
2023/12/23 01:05:40;;;;;;;8.93;2.30;;;;;;;;;;4916829;29;20223;-87
2023/12/23 01:08:06;;;;;;;10.37;2.47;;;;;;;;;;4926497;28;20292;-85
2023/12/23 01:10:31;;;;;;;10.40;2.07;;;;;;;;;;4927418;28;20230;-86
2023/12/23 01:12:57;;;;;;;7.00;2.47;;;;;;;;;;4924702;28;20226;-85
2023/12/23 01:15:27;;;;;;;6.73;1.80;;;;;;;;;;4934785;28;20223;-86
2023/12/23 01:17:53;;;;;;;7.10;1.70;;;;;;;;;;4939597;28;20211;-86
2023/12/23 01:20:21;;;;;;;4.67;1.60;;;;;;;;;;4949695;28;20546;-84
2023/12/23 01:22:51;;;;;;;6.37;1.77;;;;;;;;;;4921304;28;20227;-85
2023/12/23 01:25:17;;;;;;;9.90;1.90;;;;;;;;;;4929499;28;20226;-86
2023/12/23 01:27:43;;;;;;;4.70;1.60;;;;;;;;;;4937138;28;20233;-84
2023/12/23 01:30:09;;;;;;;3.17;1.37;;;;;;;;;;4951423;28;20222;-84
2023/12/23 01:32:37;;;;;;;4.87;1.40;;;;;;;;;;4930221;29;20234;-86
2023/12/23 01:35:11;;;;;;;4.63;1.80;;;;;;;;;;4925184;29;20242;-86
2023/12/23 01:37:37;;;;;;;6.23;1.73;;;;;;;;;;4902862;28;20235;-85
2023/12/23 01:40:06;;;;;;;8.13;2.03;;;;;;;;;;4929257;28;20738;-86
2023/12/23 01:42:31;;;;;;;7.47;1.83;;;;;;;;;;4888144;28;20605;-86
2023/12/23 01:44:57;;;;;;;4.83;1.40;;;;;;;;;;4900725;29;20230;-87
2023/12/23 01:47:22;;;;;;;5.10;1.40;;;;;;;;;;4906269;28;20230;-86
2023/12/23 01:49:48;;;;;;;4.50;1.47;;;;;;;;;;4926377;29;20226;-85
2023/12/23 01:52:15;;;;;;;2.20;1.17;;;;;;;;;;4921068;29;20243;-85
2023/12/23 01:54:41;;;;;;;4.70;1.70;;;;;;;;;;4951176;28;20231;-85
2023/12/23 01:57:09;;;;;;;3.23;1.20;;;;;;;;;;4927562;28;20311;-83
2023/12/23 01:59:35;;;;;;;9.60;2.00;;;;;;;;;;4908307;28;20230;-83
2023/12/23 02:02:01;;;;;;;4.93;1.30;;;;;;;;;;4910058;28;20246;-86
2023/12/23 02:04:26;;;;;;;6.40;1.73;;;;;;;;;;4924487;28;20254;-86
2023/12/23 02:06:57;;;;;;;3.33;1.20;;;;;;;;;;4922430;28;20230;-87
2023/12/23 02:09:24;;;;;;;7.13;1.70;;;;;;;;;;4906037;28;20273;-88
2023/12/23 02:12:02;;;;;;;6.07;1.60;;;;;;;;;;4909130;29;20219;-86
2023/12/23 02:15:05;;;;;;;6.07;1.63;;;;;;;;;;4960852;28;20237;-88
2023/12/23 02:17:33;;;;;;;7.77;1.60;;;;;;;;;;4956549;28;20295;-86
2023/12/23 02:20:01;;;;;;;6.67;1.80;;;;;;;;;;4916113;29;20214;-87
2023/12/23 02:22:29;;;;;;;6.37;2.00;;;;;;;;;;4922417;28;20230;-86
2023/12/23 02:24:56;;;;;;;9.93;2.30;;;;;;;;;;4902383;28;20701;-86
2023/12/23 02:27:29;;;;;;;4.27;1.50;;;;;;;;;;4936201;29;20215;-88
2023/12/23 02:29:55;;;;;;;5.53;1.90;;;;;;;;;;4907144;28;20919;-84
2023/12/23 02:32:23;;;;;;;9.97;1.77;;;;;;;;;;4928267;28;20313;-84
2023/12/23 02:34:49;;;;;;;7.27;1.80;;;;;;;;;;4896397;29;20297;-87
2023/12/23 02:37:14;;;;;;;9.03;2.13;;;;;;;;;;4929779;28;20273;-84
2023/12/23 02:39:40;;;;;;;11.97;2.37;;;;;;;;;;4943690;28;20295;-85
2023/12/23 02:42:06;;;;;;;8.57;2.10;;;;;;;;;;4953759;28;20233;-86
2023/12/23 02:44:32;;;;;;;8.67;2.13;;;;;;;;;;4927488;28;20223;-85
2023/12/23 02:46:58;;;;;;;8.20;2.10;;;;;;;;;;4937659;28;20224;-86
2023/12/23 02:49:26;;;;;;;5.43;2.03;;;;;;;;;;4931069;28;20638;-83
2023/12/23 02:51:56;;;;;;;8.20;2.00;;;;;;;;;;4925111;28;20234;-85
2023/12/23 02:54:21;;;;;;;7.47;2.40;;;;;;;;;;4931103;29;20219;-84
2023/12/23 02:56:47;;;;;;;9.87;2.57;;;;;;;;;;4934481;28;20229;-87
2023/12/23 02:59:12;;;;;;;7.10;2.23;;;;;;;;;;4934122;29;20218;-87
2023/12/23 03:01:39;;;;;;;12.00;2.37;;;;;;;;;;4932830;29;20241;-88
2023/12/23 03:04:04;;;;;;;7.07;2.33;;;;;;;;;;4941367;29;20210;-86
2023/12/23 03:06:30;;;;;;;5.80;2.17;;;;;;;;;;4938430;28;20233;-86
2023/12/23 03:08:55;;;;;;;10.13;2.30;;;;;;;;;;4940519;28;20221;-86
2023/12/23 03:11:25;;;;;;;8.67;2.23;;;;;;;;;;4934906;29;20222;-85
2023/12/23 03:13:55;;;;;;;5.27;1.90;;;;;;;;;;4918030;28;20679;-86
2023/12/23 03:16:21;;;;;;;11.13;2.53;;;;;;;;;;4930719;28;20662;-85
2023/12/23 03:18:46;;;;;;;8.90;2.40;;;;;;;;;;4933825;28;20258;-85
2023/12/23 03:21:15;;;;;;;5.30;1.93;;;;;;;;;;4927508;28;20246;-83
2023/12/23 03:23:40;;;;;;;7.13;2.17;;;;;;;;;;4949029;28;20318;-86
2023/12/23 03:26:07;;;;;;;8.60;2.50;;;;;;;;;;4937981;28;20229;-86
2023/12/23 03:28:32;;;;;;;8.77;2.10;;;;;;;;;;4919784;28;20223;-82
2023/12/23 03:31:06;;;;;;;9.90;2.50;;;;;;;;;;4907542;28;20222;-85
2023/12/23 03:33:31;;;;;;;10.00;2.23;;;;;;;;;;4910538;28;20307;-84
2023/12/23 03:35:58;;;;;;;11.13;2.20;;;;;;;;;;4921898;28;20225;-84
2023/12/23 03:38:26;;;;;;;9.93;2.13;;;;;;;;;;4910070;28;20225;-85
2023/12/23 03:40:52;;;;;;;7.87;2.47;;;;;;;;;;4917825;28;20314;-86
2023/12/23 03:43:18;;;;;;;5.87;2.13;;;;;;;;;;4957643;28;20644;-86
2023/12/23 03:45:45;;;;;;;7.00;1.93;;;;;;;;;;4930559;29;20231;-86
2023/12/23 03:48:11;;;;;;;12.47;2.80;;;;;;;;;;4931985;28;20235;-84
2023/12/23 03:50:39;;;;;;;9.23;2.20;;;;;;;;;;4945035;28;20241;-85
2023/12/23 03:53:04;;;;;;;13.60;2.73;;;;;;;;;;4923334;28;20695;-85
2023/12/23 03:55:32;;;;;;;11.70;3.10;;;;;;;;;;4900882;28;20229;-86
2023/12/23 03:58:03;;;;;;;11.73;2.17;;;;;;;;;;4927901;28;20213;-84
2023/12/23 04:04:16;;;;;;;9.43;2.60;;;;;;;;;;4967794;28;20520;-85
2023/12/23 04:06:41;;;;;;;8.87;2.13;;;;;;;;;;4940464;29;20692;-85
2023/12/23 04:09:09;;;;;;;8.07;2.37;;;;;;;;;;4938427;29;20222;-86
2023/12/23 04:11:37;;;;;;;14.63;2.70;;;;;;;;;;4961298;28;20246;-85
2023/12/23 04:14:03;;;;;;;9.80;2.40;;;;;;;;;;4934679;28;20541;-84
2023/12/23 04:16:30;;;;;;;6.43;2.13;;;;;;;;;;4932822;29;20231;-87
2023/12/23 04:18:56;;;;;;;11.77;2.83;;;;;;;;;;4900880;29;20808;-85
2023/12/23 04:21:24;;;;;;;10.30;2.63;;;;;;;;;;4913675;29;20234;-87
2023/12/23 04:23:55;;;;;;;8.13;2.27;;;;;;;;;;4936626;28;20227;-86
2023/12/23 04:26:21;;;;;;;5.70;1.57;;;;;;;;;;4944462;28;20230;-87
2023/12/23 04:28:48;;;;;;;18.40;2.50;;;;;;;;;;4943808;28;20222;-86
2023/12/23 04:31:14;;;;;;;12.13;2.97;;;;;;;;;;4924637;29;20436;-87
2023/12/23 04:33:40;;;;;;;10.10;2.70;;;;;;;;;;4926462;28;21339;-85
2023/12/23 04:36:09;;;;;;;9.90;2.30;;;;;;;;;;4926388;29;20218;-86
2023/12/23 04:38:35;;;;;;;4.43;1.73;;;;;;;;;;4909573;28;20366;-84
2023/12/23 04:41:03;;;;;;;9.47;2.17;;;;;;;;;;4948408;28;20262;-87
2023/12/23 04:43:30;;;;;;;9.07;2.37;;;;;;;;;;4913254;29;20224;-88
2023/12/23 04:45:57;;;;;;;7.37;2.07;;;;;;;;;;4943455;28;20270;-86
2023/12/23 04:48:24;;;;;;;4.60;1.77;;;;;;;;;;4948498;28;20225;-86
2023/12/23 04:50:50;;;;;;;7.30;2.23;;;;;;;;;;4925364;28;20254;-86
2023/12/23 04:53:16;;;;;;;8.00;2.10;;;;;;;;;;4960167;28;20219;-88
2023/12/23 04:55:44;;;;;;;5.67;2.27;;;;;;;;;;4947929;28;20250;-86
2023/12/23 04:58:12;;;;;;;7.97;2.10;;;;;;;;;;4919154;29;20283;-86
2023/12/23 05:00:42;;;;;;;6.97;1.87;;;;;;;;;;4908315;28;20305;-87
2023/12/23 05:03:07;;;;;;;7.13;2.00;;;;;;;;;;4929978;28;20245;-85
2023/12/23 05:05:38;;;;;;;6.17;2.00;;;;;;;;;;4947386;28;20558;-85
2023/12/23 05:08:04;;;;;;;7.70;2.23;;;;;;;;;;4939300;28;20314;-85
2023/12/23 05:10:35;;;;;;;6.53;2.20;;;;;;;;;;4924717;28;20230;-83
2023/12/23 05:13:01;;;;;;;9.07;2.77;;;;;;;;;;4932298;28;20222;-85
2023/12/23 05:15:31;;;;;;;10.67;2.67;;;;;;;;;;4923503;28;20265;-83
2023/12/23 05:17:56;;;;;;;6.07;2.33;;;;;;;;;;4903654;28;20234;-85
2023/12/23 05:20:22;;;;;;;4.70;1.80;;;;;;;;;;4927562;28;20231;-85
2023/12/23 05:22:50;;;;;;;3.77;1.47;;;;;;;;;;4926218;28;20276;-83
2023/12/23 05:25:16;;;;;;;8.90;1.90;;;;;;;;;;4938813;28;20214;-84
2023/12/23 05:27:41;;;;;;;4.17;1.27;;;;;;;;;;4954543;28;20318;-86
2023/12/23 05:30:08;;;;;;;5.80;1.23;;;;;;;;;;4926827;29;20231;-86
2023/12/23 05:32:33;;;;;;;2.37;1.30;;;;;;;;;;4948058;28;20235;-86
2023/12/23 05:35:03;;;;;;;3.50;1.20;;;;;;;;;;4943012;28;20269;-84
2023/12/23 05:37:33;;;;;;;2.27;1.30;;;;;;;;;;4921726;28;20347;-85
2023/12/23 05:40:01;;;;;;;4.60;1.00;;;;;;;;;;4940680;28;20223;-85
2023/12/23 05:42:29;;;;;;;2.83;1.00;;;;;;;;;;4935886;28;20596;-84
2023/12/23 05:44:54;;;;;;;2.80;1.13;;;;;;;;;;4916873;28;20242;-86
2023/12/23 05:47:22;;;;;;;1.80;0.83;;;;;;;;;;4908110;28;20219;-84
2023/12/23 05:49:50;;;;;;;3.33;1.10;;;;;;;;;;4940951;28;20229;-86
2023/12/23 05:52:15;;;;;;;2.67;1.20;;;;;;;;;;4909792;28;20924;-85
2023/12/23 05:54:43;;;;;;;2.83;1.07;;;;;;;;;;4919566;28;20226;-85
2023/12/23 05:57:13;;;;;;;3.40;1.23;;;;;;;;;;4928910;28;20225;-83
2023/12/23 05:59:38;;;;;;;2.97;1.27;;;;;;;;;;4936383;28;20269;-85
2023/12/23 06:02:04;;;;;;;5.73;1.27;;;;;;;;;;4945714;28;20879;-84
2023/12/23 06:04:30;;;;;;;3.83;1.30;;;;;;;;;;4927917;29;20231;-85
2023/12/23 06:06:59;;;;;;;7.40;1.60;;;;;;;;;;4943741;28;20223;-85
2023/12/23 06:09:25;;;;;;;4.73;1.77;;;;;;;;;;4918880;28;20222;-84
2023/12/23 06:11:50;;;;;;;10.80;3.00;;;;;;;;;;4939215;28;20240;-84
2023/12/23 06:14:19;;;;;;;6.57;2.00;;;;;;;;;;4943611;28;20218;-83
2023/12/23 06:16:45;;;;;;;7.03;1.80;;;;;;;;;;4929865;28;20813;-83
2023/12/23 06:19:10;;;;;;;7.50;2.00;;;;;;;;;;4933674;28;20295;-85
2023/12/23 06:21:36;;;;;;;6.50;1.67;;;;;;;;;;4941374;28;20238;-85
2023/12/23 06:24:04;;;;;;;5.47;2.00;;;;;;;;;;4919005;28;20230;-85
2023/12/23 06:26:32;;;;;;;6.27;2.00;;;;;;;;;;4897010;28;20775;-84
2023/12/23 06:28:58;;;;;;;8.70;2.73;;;;;;;;;;4937715;28;20226;-84
2023/12/23 06:31:23;;;;;;;6.87;2.00;;;;;;;;;;4949009;28;20229;-83
2023/12/23 06:33:49;;;;;;;9.60;2.40;;;;;;;;;;4927983;28;20232;-86
2023/12/23 06:36:16;;;;;;;7.43;2.30;;;;;;;;;;4927313;28;20582;-85
2023/12/23 06:38:42;;;;;;;8.20;2.83;;;;;;;;;;4924567;28;20227;-85
2023/12/23 06:41:08;;;;;;;5.90;2.53;;;;;;;;;;4923853;29;20237;-84
2023/12/23 06:43:33;;;;;;;11.20;3.20;;;;;;;;;;4944057;28;20222;-85
2023/12/23 06:46:01;;;;;;;5.23;2.40;;;;;;;;;;4940218;28;20226;-82
2023/12/23 06:48:26;;;;;;;5.60;2.40;;;;;;;;;;4906594;28;20235;-85
2023/12/23 06:50:52;;;;;;;7.50;2.50;;;;;;;;;;4921605;28;20287;-84
2023/12/23 06:53:17;;;;;;;10.07;2.97;;;;;;;;;;4930951;28;20219;-85
2023/12/23 06:55:43;;;;;;;6.40;2.77;;;;;;;;;;4927604;28;20817;-87
2023/12/23 06:58:08;;;;;;;6.87;2.50;;;;;;;;;;4946590;28;20229;-84
2023/12/23 07:00:36;;;;;;;7.77;2.50;;;;;;;;;;4944904;28;20219;-84
2023/12/23 07:03:05;;;;;;;8.50;2.57;;;;;;;;;;4930225;28;20245;-86
2023/12/23 07:05:30;;;;;;;7.67;2.60;;;;;;;;;;4925863;29;20282;-85
2023/12/23 07:07:56;;;;;;;6.77;2.20;;;;;;;;;;4930008;28;20309;-85
2023/12/23 07:10:21;;;;;;;7.10;2.80;;;;;;;;;;4927044;28;20217;-85
2023/12/23 07:12:49;;;;;;;8.50;2.43;;;;;;;;;;4929830;29;20246;-83
2023/12/23 07:15:15;;;;;;;7.93;2.80;;;;;;;;;;4954455;28;20219;-85
2023/12/23 07:17:40;;;;;;;5.87;2.37;;;;;;;;;;4945516;28;20376;-84
2023/12/23 07:20:11;;;;;;;7.37;2.17;;;;;;;;;;4936823;28;20636;-83
2023/12/23 07:22:36;;;;;;;6.43;1.90;;;;;;;;;;4914870;28;20262;-84
2023/12/23 07:25:07;;;;;;;7.20;2.30;;;;;;;;;;4927786;28;20219;-85
2023/12/23 07:27:35;;;;;;;11.00;2.53;;;;;;;;;;4917532;28;20294;-86
2023/12/23 07:30:03;;;;;;;5.13;1.97;;;;;;;;;;4909397;28;20230;-83
2023/12/23 07:32:29;;;;;;;4.97;2.37;;;;;;;;;;4918712;28;20720;-83
2023/12/23 07:34:59;;;;;;;6.53;2.17;;;;;;;;;;4932551;29;20227;-84
2023/12/23 07:37:29;;;;;;;7.67;2.40;;;;;;;;;;4918421;29;20230;-82
2023/12/23 07:39:57;;;;;;;4.97;1.70;;;;;;;;;;4944399;28;20224;-84
2023/12/23 07:42:27;;;;;;;5.20;3.90;;;;;;;;;;4927009;28;20234;-84
2023/12/23 07:44:52;;;;;;;7.57;2.87;;;;;;;;;;4913333;28;20649;-83
2023/12/23 07:47:20;;;;;;;4.87;2.00;;;;;;;;;;4929989;28;20230;-84
2023/12/23 07:49:53;;;;;;;4.73;1.90;;;;;;;;;;4933506;28;20265;-83
2023/12/23 07:52:19;;;;;;;5.03;2.00;;;;;;;;;;4935210;28;20362;-83
2023/12/23 07:54:44;;;;;;;5.78;2.50;;;;;;;;;;4944793;28;21337;-84
2023/12/23 07:57:13;;;;;;;5.93;2.30;;;;;;;;;;4918028;28;20228;-84
2023/12/23 07:59:39;;;;;;;4.07;1.47;;;;;;;;;;4921679;28;20226;-84
2023/12/23 08:02:05;;;;;;;7.00;2.23;;;;;;;;;;4932008;28;20706;-85
2023/12/23 08:04:31;;;;;;;5.93;1.83;;;;;;;;;;4927625;28;20768;-88
2023/12/23 08:06:57;;;;;;;4.73;1.90;;;;;;;;;;4929595;28;20238;-84
2023/12/23 08:09:27;;;;;;;4.67;1.77;;;;;;;;;;4920232;29;20710;-86
2023/12/23 08:11:52;;;;;;;4.97;2.20;;;;;;;;;;4912626;28;20227;-85
2023/12/23 08:14:18;;;;;;;5.37;1.80;;;;;;;;;;4927784;28;20219;-86
2023/12/23 08:16:46;;;;;;;6.53;1.67;;;;;;;;;;4932146;28;20895;-83
2023/12/23 08:19:12;;;;;;;3.37;2.13;;;;;;;;;;4925879;28;20270;-84
2023/12/23 08:21:38;;;;;;;3.10;1.77;;;;;;;;;;4929218;29;20293;-83
2023/12/23 08:24:05;;;;;;;3.93;1.63;;;;;;;;;;4923028;28;20227;-87
2023/12/23 08:26:31;;;;;;;2.30;1.33;;;;;;;;;;4922458;28;20214;-84
2023/12/23 08:28:57;;;;;;;4.63;1.60;;;;;;;;;;4903093;28;20218;-83
2023/12/23 08:31:28;;;;;;;4.00;1.90;;;;;;;;;;4918681;28;20262;-84
2023/12/23 08:33:56;;;;;;;2.80;1.73;;;;;;;;;;4924393;29;20227;-85
2023/12/23 08:36:24;;;;;;;4.27;1.97;;;;;;;;;;4923313;28;20231;-85
2023/12/23 08:38:54;;;;;;;2.77;1.90;;;;;;;;;;4902925;29;20242;-84
2023/12/23 08:41:22;;;;;;;2.93;2.00;;;;;;;;;;4919841;28;20298;-85
2023/12/23 08:43:49;;;;;;;3.27;2.07;;;;;;;;;;4904400;29;20786;-86
2023/12/23 08:46:19;;;;;;;4.43;2.03;;;;;;;;;;4907956;28;20223;-83
2023/12/23 08:48:45;;;;;;;3.43;2.77;;;;;;;;;;4915958;28;21528;-83
2023/12/23 08:51:10;;;;;;;5.07;2.00;;;;;;;;;;4934912;28;20229;-86
2023/12/23 08:53:38;;;;;;;4.23;2.40;;;;;;;;;;4929253;28;20223;-83
2023/12/23 08:56:06;;;;;;;5.37;2.53;;;;;;;;;;4913677;28;20287;-84
2023/12/23 08:58:32;;;;;;;2.37;1.93;;;;;;;;;;4918603;28;20226;-83
2023/12/23 09:00:58;;;;;;;4.70;2.30;;;;;;;;;;4917897;28;20233;-83
2023/12/23 09:03:23;;;;;;;3.50;2.20;;;;;;;;;;4900620;29;20326;-83
2023/12/23 09:05:49;;;;;;;4.83;2.50;;;;;;;;;;4915761;29;20277;-85
2023/12/23 09:08:15;;;;;;;3.47;2.10;;;;;;;;;;4917388;28;20294;-83
2023/12/23 09:10:42;;;;;;;4.77;2.43;;;;;;;;;;4886578;28;20229;-84
2023/12/23 09:13:10;;;;;;;5.13;2.50;;;;;;;;;;4952018;28;20587;-83
2023/12/23 09:15:40;;;;;;;3.40;2.13;;;;;;;;;;4918018;29;20246;-84
2023/12/23 09:18:05;;;;;;;5.97;1.93;;;;;;;;;;4918356;28;20708;-85
2023/12/23 09:20:36;;;;;;;4.07;1.93;;;;;;;;;;4903742;28;20221;-84
2023/12/23 09:23:03;;;;;;;3.63;1.90;;;;;;;;;;4921164;28;20227;-85
2023/12/23 09:25:31;;;;;;;3.03;2.20;;;;;;;;;;4923339;28;21008;-84
2023/12/23 09:27:59;;;;;;;2.60;1.93;;;;;;;;;;4891243;28;20245;-85
2023/12/23 09:30:25;;;;;;;3.07;2.27;;;;;;;;;;4918185;28;20704;-84
2023/12/23 09:32:52;;;;;;;23.00;4.43;;;;;;;;;;4936228;29;20340;-86
2023/12/23 09:35:18;;;;;;;7.87;2.70;;;;;;;;;;4908906;28;20215;-87
2023/12/23 09:37:45;;;;;;;4.20;2.73;;;;;;;;;;4902042;28;20233;-85
2023/12/23 09:40:13;;;;;;;3.27;3.07;;;;;;;;;;4915860;28;20568;-87
2023/12/23 09:42:39;;;;;;;4.20;3.13;;;;;;;;;;4934101;28;20235;-86
2023/12/23 09:45:05;;;;;;;3.77;2.63;;;;;;;;;;4916445;28;20233;-85
2023/12/23 09:47:31;;;;;;;3.43;2.60;;;;;;;;;;4951998;28;20285;-86
2023/12/23 09:49:58;;;;;;;4.47;2.50;;;;;;;;;;4920663;29;20226;-86
2023/12/23 09:52:30;;;;;;;2.40;2.20;;;;;;;;;;4920244;28;20238;-85
2023/12/23 09:54:58;;;;;;;3.93;2.80;;;;;;;;;;4921783;28;20723;-88
2023/12/23 09:57:24;;;;;;;4.20;2.10;;;;;;;;;;4922091;28;20223;-87
2023/12/23 09:59:53;;;;;;;2.33;1.80;;;;;;;;;;4912353;28;20253;-77
2023/12/23 10:02:20;;;;;;;2.50;1.90;;;;;;;;;;4893156;28;20233;-77
2023/12/23 10:04:48;;;;;;;3.13;2.20;;;;;;;;;;4928640;28;20222;-77
2023/12/23 10:07:15;;;;;;;4.17;2.23;;;;;;;;;;4911157;28;20265;-77
2023/12/23 10:09:43;;;;;;;3.37;2.07;;;;;;;;;;4912843;28;20234;-79
2023/12/23 10:12:10;;;;;;;3.10;2.33;;;;;;;;;;4895444;28;20230;-78
2023/12/23 10:14:41;;;;;;;5.37;2.40;;;;;;;;;;4912584;29;20234;-78
2023/12/23 10:17:07;;;;;;;5.00;1.90;;;;;;;;;;4912909;28;20235;-77
2023/12/23 10:19:33;;;;;;;2.00;1.80;;;;;;;;;;4899265;28;20226;-78
2023/12/23 10:22:01;;;;;;;5.13;2.00;;;;;;;;;;4913585;28;20237;-77
2023/12/23 10:24:27;;;;;;;4.80;2.30;;;;;;;;;;4930698;28;20627;-77
2023/12/23 10:26:52;;;;;;;3.77;2.33;;;;;;;;;;4915356;28;20229;-78
2023/12/23 10:29:18;;;;;;;3.13;2.03;;;;;;;;;;4914642;28;20234;-77
2023/12/23 10:31:48;;;;;;;2.53;2.10;;;;;;;;;;4900430;28;20237;-79
2023/12/23 10:34:17;;;;;;;4.90;2.40;;;;;;;;;;4930908;28;20223;-77
2023/12/23 10:36:43;;;;;;;3.50;2.47;;;;;;;;;;4932169;29;21203;-78
2023/12/23 10:39:31;;;;;;;3.27;2.37;;;;;;;;;;4914366;28;20231;-78
2023/12/23 10:42:05;;;;;;;3.73;2.20;;;;;;;;;;4931192;28;20231;-77
2023/12/23 10:44:33;;;;;;;3.23;2.40;;;;;;;;;;4915281;28;20218;-78
2023/12/23 10:46:59;;;;;;;3.93;2.50;;;;;;;;;;4915853;28;20227;-78
2023/12/23 10:49:24;;;;;;;4.23;2.83;;;;;;;;;;4913781;28;20227;-79
2023/12/23 10:51:50;;;;;;;2.70;2.17;;;;;;;;;;4915366;28;20245;-77
2023/12/23 10:54:16;;;;;;;3.50;2.67;;;;;;;;;;4897307;28;20222;-78
2023/12/23 10:56:43;;;;;;;3.63;3.33;;;;;;;;;;4915672;28;20211;-77
2023/12/23 10:59:09;;;;;;;5.27;3.60;;;;;;;;;;4900820;28;20218;-76
2023/12/23 11:01:37;;;;;;;3.73;3.43;;;;;;;;;;4899892;28;21140;-77
2023/12/23 11:04:02;;;;;;;3.97;3.60;;;;;;;;;;4917087;28;20226;-79
2023/12/23 11:06:35;;;;;;;7.43;3.90;;;;;;;;;;4915495;28;20229;-80
2023/12/23 11:09:01;;;;;;;7.10;4.60;;;;;;;;;;4929671;28;20241;-79
2023/12/23 11:11:27;;;;;;;4.47;3.53;;;;;;;;;;4912311;28;20624;-77
2023/12/23 11:13:52;;;;;;;4.93;3.13;;;;;;;;;;4917897;28;20230;-78
2023/12/23 11:16:20;;;;;;;4.37;3.80;;;;;;;;;;4921377;28;20233;-78
2023/12/23 11:18:48;;;;;;;3.87;3.10;;;;;;;;;;4921886;28;20234;-76
2023/12/23 11:21:15;;;;;;;6.63;3.07;;;;;;;;;;4915152;28;20754;-79
2023/12/23 11:23:41;;;;;;;3.17;2.87;;;;;;;;;;4885414;28;20322;-78
2023/12/23 11:26:07;;;;;;;4.50;3.53;;;;;;;;;;4933121;28;20261;-79
2023/12/23 11:28:35;;;;;;;6.87;3.23;;;;;;;;;;4913851;28;20234;-77
2023/12/23 11:31:01;;;;;;;3.67;3.23;;;;;;;;;;4924193;28;20223;-77
2023/12/23 11:33:30;;;;;;;3.97;3.50;;;;;;;;;;4901756;28;20233;-78
2023/12/23 11:36:01;;;;;;;6.27;4.20;;;;;;;;;;4932496;28;20362;-78
2023/12/23 11:38:45;;;;;;;5.17;3.57;;;;;;;;;;4927585;28;20723;-79
2023/12/23 11:41:11;;;;;;;3.20;2.90;;;;;;;;;;4913357;28;20673;-79
2023/12/23 11:43:37;;;;;;;4.07;3.20;;;;;;;;;;4910861;28;20265;-80
2023/12/23 11:46:02;;;;;;;3.70;3.30;;;;;;;;;;4909772;28;20861;-77
2023/12/23 11:48:28;;;;;;;3.77;3.30;;;;;;;;;;4907096;28;20266;-78
2023/12/23 11:50:56;;;;;;;4.00;3.27;;;;;;;;;;4908428;28;20241;-80
2023/12/23 11:53:21;;;;;;;5.73;4.63;;;;;;;;;;4934237;28;20239;-78
2023/12/23 11:55:49;;;;;;;6.40;3.20;;;;;;;;;;4917876;28;20227;-79
2023/12/23 11:58:18;;;;;;;4.13;3.30;;;;;;;;;;4931788;28;20223;-78
2023/12/23 12:00:45;;;;;;;4.27;3.50;;;;;;;;;;4918289;28;20226;-77
2023/12/23 12:03:10;;;;;;;4.73;4.23;;;;;;;;;;4909221;28;20218;-79
2023/12/23 12:05:40;;;;;;;3.43;3.13;;;;;;;;;;4902878;29;20225;-79
2023/12/23 12:08:06;;;;;;;3.57;3.27;;;;;;;;;;4949914;28;20227;-79
2023/12/23 12:10:36;;;;;;;5.63;3.20;;;;;;;;;;4919673;28;20223;-79
2023/12/23 12:13:04;;;;;;;5.93;5.00;;;;;;;;;;4952732;28;20234;-79
2023/12/23 12:15:34;;;;;;;6.30;3.63;;;;;;;;;;4934388;28;20301;-79
2023/12/23 12:18:00;;;;;;;4.40;4.00;;;;;;;;;;4934083;28;20226;-78
2023/12/23 12:20:25;;;;;;;4.97;3.50;;;;;;;;;;4933294;28;21571;-80
2023/12/23 12:22:51;;;;;;;3.67;3.37;;;;;;;;;;4918191;29;21669;-79
2023/12/23 12:25:18;;;;;;;5.40;3.50;;;;;;;;;;4909218;28;20238;-78
2023/12/23 12:27:44;;;;;;;2.83;2.63;;;;;;;;;;4938186;29;20226;-78
2023/12/23 12:30:11;;;;;;;5.60;3.60;;;;;;;;;;4920193;28;20583;-78
2023/12/23 12:32:43;;;;;;;4.17;2.60;;;;;;;;;;4916714;28;20937;-79
2023/12/23 12:35:15;;;;;;;3.40;3.10;;;;;;;;;;4923145;28;20350;-79
2023/12/23 12:37:40;;;;;;;3.53;3.23;;;;;;;;;;4933338;28;20270;-78
2023/12/23 12:40:10;;;;;;;3.60;3.30;;;;;;;;;;4901499;28;20235;-78
2023/12/23 12:42:35;;;;;;;6.10;4.20;;;;;;;;;;4951817;28;20325;-81
2023/12/23 12:45:01;;;;;;;6.20;4.43;;;;;;;;;;4923671;29;20223;-77
2023/12/23 12:47:30;;;;;;;6.60;4.60;;;;;;;;;;4944132;28;20680;-78
2023/12/23 12:50:02;;;;;;;7.33;4.60;;;;;;;;;;4926657;28;20219;-79
2023/12/23 12:52:31;;;;;;;4.40;4.10;;;;;;;;;;4924432;28;20351;-79
2023/12/23 12:55:03;;;;;;;5.17;4.77;;;;;;;;;;4928072;28;20254;-79
2023/12/23 12:57:29;;;;;;;6.87;5.80;;;;;;;;;;4912160;28;20235;-79
2023/12/23 12:59:59;;;;;;;6.80;6.20;;;;;;;;;;4945158;28;20289;-79
2023/12/23 13:02:27;;;;;;;6.90;6.30;;;;;;;;;;4914924;28;20252;-78
2023/12/23 13:04:52;;;;;;;9.23;6.50;;;;;;;;;;4915047;28;20590;-79
2023/12/23 13:07:18;;;;;;;6.63;6.03;;;;;;;;;;4918740;28;20230;-76
2023/12/23 13:09:45;;;;;;;6.80;6.30;;;;;;;;;;4916826;28;20246;-78
2023/12/23 13:12:13;;;;;;;6.60;6.00;;;;;;;;;;4929747;28;20229;-80
2023/12/23 13:14:41;;;;;;;6.97;6.37;;;;;;;;;;4912569;28;22064;-77
2023/12/23 13:17:11;;;;;;;7.90;7.20;;;;;;;;;;4931732;28;20223;-77
2023/12/23 13:19:37;;;;;;;7.03;6.50;;;;;;;;;;4919806;28;20239;-79
2023/12/23 13:22:02;;;;;;;6.90;6.30;;;;;;;;;;4905917;28;20223;-80
2023/12/23 13:24:28;;;;;;;6.77;6.10;;;;;;;;;;4902666;28;20322;-80
2023/12/23 13:26:53;;;;;;;7.77;6.43;;;;;;;;;;4902801;28;20229;-80
2023/12/23 13:29:22;;;;;;;5.97;5.47;;;;;;;;;;4920385;28;20226;-79
2023/12/23 13:31:50;;;;;;;6.00;5.53;;;;;;;;;;4950156;28;20234;-79
2023/12/23 13:34:16;;;;;;;6.10;5.60;;;;;;;;;;4932815;28;20222;-81
2023/12/23 13:36:43;;;;;;;5.67;5.17;;;;;;;;;;4902776;28;20261;-80
2023/12/23 13:39:13;;;;;;;5.77;5.27;;;;;;;;;;4932406;28;20250;-78
2023/12/23 13:41:38;;;;;;;5.83;5.33;;;;;;;;;;4949355;28;20234;-77
2023/12/23 13:44:04;;;;;;;5.57;5.07;;;;;;;;;;4907352;28;20225;-79
2023/12/23 13:46:29;;;;;;;4.90;4.50;;;;;;;;;;4942883;28;20708;-80
2023/12/23 13:48:55;;;;;;;5.23;4.83;;;;;;;;;;4928832;28;20329;-77
2023/12/23 13:51:20;;;;;;;5.57;4.97;;;;;;;;;;4943018;28;20730;-82
2023/12/23 13:53:46;;;;;;;4.77;4.37;;;;;;;;;;4956935;28;20230;-77
2023/12/23 13:56:14;;;;;;;5.33;4.83;;;;;;;;;;4924505;28;20328;-77
2023/12/23 13:58:39;;;;;;;6.17;5.50;;;;;;;;;;4899148;28;20258;-77
2023/12/23 14:01:05;;;;;;;5.27;4.77;;;;;;;;;;4940935;28;20229;-77
2023/12/23 14:03:30;;;;;;;6.20;4.60;;;;;;;;;;4930014;28;20232;-80
2023/12/23 14:05:57;;;;;;;4.87;4.43;;;;;;;;;;4933673;28;20227;-76
2023/12/23 14:08:25;;;;;;;4.97;4.57;;;;;;;;;;4947971;28;20361;-77
2023/12/23 14:10:53;;;;;;;5.13;4.57;;;;;;;;;;4931739;28;20219;-75
2023/12/23 14:13:22;;;;;;;6.10;4.87;;;;;;;;;;4940286;28;20230;-78
2023/12/23 14:15:47;;;;;;;4.60;4.20;;;;;;;;;;4952131;29;20219;-77
2023/12/23 14:18:13;;;;;;;4.50;4.10;;;;;;;;;;4955537;28;20226;-78
2023/12/23 14:20:41;;;;;;;5.20;4.70;;;;;;;;;;4934913;28;20227;-77
2023/12/23 14:23:11;;;;;;;4.20;3.90;;;;;;;;;;4953145;28;20257;-78
2023/12/23 14:25:39;;;;;;;3.53;3.30;;;;;;;;;;4949887;28;20227;-78
2023/12/23 14:28:05;;;;;;;3.80;3.50;;;;;;;;;;4964560;28;20309;-76
2023/12/23 14:30:33;;;;;;;3.30;3.10;;;;;;;;;;4947086;28;20240;-80
2023/12/23 14:32:58;;;;;;;5.03;4.67;;;;;;;;;;4943175;28;20238;-78
2023/12/23 14:35:24;;;;;;;4.60;4.30;;;;;;;;;;4957697;28;20603;-78
2023/12/23 14:37:54;;;;;;;3.53;3.23;;;;;;;;;;4954765;28;20230;-78
2023/12/23 14:40:20;;;;;;;3.23;3.03;;;;;;;;;;4940282;28;20250;-79
2023/12/23 14:42:46;;;;;;;3.60;3.30;;;;;;;;;;4956474;28;20648;-78
2023/12/23 14:45:11;;;;;;;3.57;3.27;;;;;;;;;;4931484;28;20219;-76